Scullville, New Jersey
Current Conditions -  °F | °C
As of 6:54 AM on Friday 28 Nov 2014 (Local Time) from KACY Reporting Station
Clear Clear  
Wind Chill: 23°   Ceiling: Unl
Heat Index: 30°   Visibility: 10mi
Dew Point: 25°   Wind: 7mph
Humidity: 82%   Direction: 280°W
Pressure: 30.17"   Gusts: NA
Location:  39.4502°N, 74.7366°W
Report Text: KACY 281154Z 28006KT 10SM CLR M01/M04 A3017 RMK AO2 SLP218 60000 T10111039 11006 21033 53015
Loading
Personal Weather Stations






























Interactive Weather Map New forecast layout! Learn more

10-Day Weather Forecast

Advertisements
Track Severe Weather on mobile